Time;durP1;ratioP1;P1;durP2;ratioP2;P2;SDS_P1;SDS_P2;PMS_P1;PMS_P2;Temp;Humidity;BMP_temperature;BMP_pressure;BME280_temperature;BME280_humidity;BME280_pressure;Samples;Min_cycle;Max_cycle;Signal;HPM_P1;HPM_P2
2021/03/30 00:01:49;;;;;;;11.65;4.95;;;;;;;13.16;50.89;101682.72;5111999;28;20027;-73
2021/03/30 00:04:14;;;;;;;12.82;5.00;;;;;;;13.25;50.74;101684.13;5112742;28;20496;-74
2021/03/30 00:06:40;;;;;;;13.38;5.10;;;;;;;13.28;50.96;101680.41;5114316;28;20038;-72
2021/03/30 00:09:08;;;;;;;10.75;5.68;;;;;;;12.75;51.34;101604.38;5117198;28;20063;-72
2021/03/30 00:11:34;;;;;;;13.77;5.43;;;;;;;13.08;51.21;101659.91;5116047;28;20409;-73
2021/03/30 00:13:59;;;;;;;12.55;5.55;;;;;;;13.06;51.40;101657.31;5117344;28;20040;-72
2021/03/30 00:16:25;;;;;;;11.60;5.70;;;;;;;13.12;51.27;101664.16;5115589;28;20439;-73
2021/03/30 00:18:50;;;;;;;12.98;5.45;;;;;;;13.17;51.18;101665.69;5115741;28;20417;-71
2021/03/30 00:21:16;;;;;;;10.55;5.13;;;;;;;13.20;51.35;101663.84;5116787;28;20032;-72
2021/03/30 00:23:42;;;;;;;10.13;5.68;;;;;;;12.93;51.32;101658.81;5116035;28;20031;-73
2021/03/30 00:26:07;;;;;;;12.10;5.85;;;;;;;12.92;52.08;101665.13;5116708;28;20100;-74
2021/03/30 00:28:33;;;;;;;12.85;6.57;;;;;;;12.88;52.55;101664.41;5115828;28;20531;-74
2021/03/30 00:30:58;;;;;;;12.18;6.15;;;;;;;12.99;52.03;101663.91;5116979;27;20027;-74
2021/03/30 00:33:24;;;;;;;12.85;5.95;;;;;;;12.87;52.48;101641.25;5116491;28;20035;-74
2021/03/30 00:35:49;;;;;;;11.88;5.90;;;;;;;12.92;52.62;101654.41;5081813;28;20040;-74
2021/03/30 00:38:15;;;;;;;16.58;7.68;;;;;;;13.04;52.60;101661.88;5116593;28;20036;-74
2021/03/30 00:40:41;;;;;;;16.38;7.55;;;;;;;12.99;52.68;101663.91;5115930;28;20031;-74
2021/03/30 00:43:06;;;;;;;15.40;7.82;;;;;;;12.67;53.43;101643.16;5116463;28;20035;-74
2021/03/30 00:45:32;;;;;;;17.48;7.70;;;;;;;12.69;53.07;101641.25;5115321;28;20042;-75
2021/03/30 00:47:58;;;;;;;13.32;7.18;;;;;;;12.70;53.61;101664.41;5116531;28;20039;-73
2021/03/30 00:50:29;;;;;;;15.45;7.43;;;;;;;12.60;53.82;101662.16;5098108;28;20806;-73
2021/03/30 00:52:55;;;;;;;16.67;7.22;;;;;;;12.40;53.92;101627.41;5116676;28;20082;-72
2021/03/30 00:55:20;;;;;;;16.27;7.68;;;;;;;12.50;53.80;101657.31;5116242;28;20050;-72
2021/03/30 00:57:46;;;;;;;13.57;7.47;;;;;;;12.38;54.13;101664.09;5116437;28;20118;-74
2021/03/30 01:00:14;;;;;;;15.30;7.53;;;;;;;12.14;54.13;101643.78;5115060;28;20032;-74
2021/03/30 01:02:40;;;;;;;19.10;7.60;;;;;;;12.41;53.92;101666.63;5114919;28;20149;-73
2021/03/30 01:05:08;;;;;;;14.02;7.38;;;;;;;12.34;54.27;101667.81;5115858;28;20028;-74
2021/03/30 01:07:35;;;;;;;12.23;6.47;;;;;;;12.28;54.46;101669.00;5116176;28;20062;-73
2021/03/30 01:10:07;;;;;;;14.75;6.85;;;;;;;12.40;54.05;101667.56;5115102;28;20036;-74
2021/03/30 01:12:54;;;;;;;11.50;5.85;;;;;;;12.41;53.73;101636.31;5116308;28;20030;-74
2021/03/30 01:15:34;;;;;;;10.75;5.88;;;;;;;12.60;53.26;101659.47;5115533;28;20031;-74
2021/03/30 01:18:12;;;;;;;15.00;6.40;;;;;;;12.56;53.26;101652.53;5115864;28;20048;-74
2021/03/30 01:20:56;;;;;;;12.90;6.60;;;;;;;12.66;53.10;101668.19;5116180;28;20028;-71
2021/03/30 01:23:52;;;;;;;12.18;6.10;;;;;;;12.57;53.24;101659.63;5115538;28;20498;-71
2021/03/30 01:26:36;;;;;;;13.02;5.60;;;;;;;12.63;53.36;101662.94;5114192;28;20030;-72
2021/03/30 01:29:12;;;;;;;12.55;6.10;;;;;;;12.54;53.71;101662.44;5115889;28;20055;-70
2021/03/30 01:31:45;;;;;;;11.85;6.00;;;;;;;12.15;53.67;101595.56;5115671;28;20038;-69
2021/03/30 01:34:13;;;;;;;11.13;6.20;;;;;;;12.49;53.76;101656.44;5115505;28;20035;-75
2021/03/30 01:36:42;;;;;;;13.75;6.35;;;;;;;12.55;53.62;101661.53;5115726;28;20050;-74
2021/03/30 01:39:10;;;;;;;11.48;5.75;;;;;;;12.43;53.71;101635.28;5115277;28;20489;-77
2021/03/30 01:41:37;;;;;;;11.60;6.05;;;;;;;12.54;53.69;101659.75;5115598;28;20028;-72
2021/03/30 01:44:05;;;;;;;11.75;5.97;;;;;;;12.54;53.64;101656.22;5115751;28;20486;-73
2021/03/30 01:46:32;;;;;;;14.80;5.72;;;;;;;12.59;53.38;101648.84;5115291;28;20398;-72
2021/03/30 01:48:59;;;;;;;14.88;6.00;;;;;;;12.53;53.44;101641.09;5115517;28;20047;-72
2021/03/30 01:51:25;;;;;;;11.73;6.13;;;;;;;12.53;53.60;101650.00;5114022;28;20031;-73
2021/03/30 01:53:53;;;;;;;10.23;5.57;;;;;;;12.49;54.42;101651.09;5115124;28;20538;-73
2021/03/30 01:56:20;;;;;;;12.80;6.00;;;;;;;12.49;54.06;101639.50;5113887;28;20039;-72
2021/03/30 01:58:47;;;;;;;13.45;5.95;;;;;;;12.63;54.13;101646.88;5113917;28;20107;-72
2021/03/30 02:01:15;;;;;;;11.00;5.78;;;;;;;12.67;53.84;101645.81;5113748;28;20390;-73
2021/03/30 02:03:42;;;;;;;10.82;5.90;;;;;;;12.77;53.97;101655.16;5114186;28;20036;-72
2021/03/30 02:06:09;;;;;;;12.85;6.32;;;;;;;12.66;54.40;101631.56;5115062;28;20516;-73
2021/03/30 02:08:36;;;;;;;11.68;5.75;;;;;;;12.68;54.37;101629.69;5115249;28;20070;-72
2021/03/30 02:11:02;;;;;;;11.05;5.70;;;;;;;12.70;54.47;101653.69;5114882;28;20028;-72
2021/03/30 02:13:42;;;;;;;13.80;5.28;;;;;;;12.39;54.72;101606.97;5114374;28;20047;-71
2021/03/30 02:16:18;;;;;;;10.07;5.45;;;;;;;12.23;54.96;101584.50;5115102;28;20028;-74
2021/03/30 02:19:06;;;;;;;11.63;5.88;;;;;;;12.33;55.63;101618.78;5114949;28;20043;-74
2021/03/30 02:22:01;;;;;;;12.02;6.03;;;;;;;12.43;55.90;101650.50;5114459;28;20106;-74
2021/03/30 02:24:30;;;;;;;10.60;5.57;;;;;;;12.43;55.87;101618.38;5112761;28;20058;-75
2021/03/30 02:26:58;;;;;;;13.73;6.35;;;;;;;12.46;56.10;101635.19;5114653;28;20500;-75
2021/03/30 02:29:27;;;;;;;14.82;6.20;;;;;;;12.23;56.60;101585.38;5113588;28;20032;-70
2021/03/30 02:31:55;;;;;;;11.98;6.30;;;;;;;12.24;57.28;101634.41;5114000;28;20071;-71
2021/03/30 02:34:26;;;;;;;13.15;6.20;;;;;;;12.36;56.90;101633.88;5114043;28;20027;-71
2021/03/30 02:36:55;;;;;;;14.18;6.70;;;;;;;12.18;56.90;101594.56;5114721;28;20035;-71
2021/03/30 02:39:22;;;;;;;15.23;6.32;;;;;;;12.30;56.90;101629.66;5096662;28;20035;-72
2021/03/30 02:41:48;;;;;;;11.38;6.15;;;;;;;12.17;57.45;101615.09;5114453;28;20036;-72
2021/03/30 02:44:17;;;;;;;11.75;6.03;;;;;;;12.09;57.24;101609.22;5114260;28;20478;-72
2021/03/30 02:46:45;;;;;;;13.27;6.22;;;;;;;12.40;56.81;101635.44;5114316;28;20042;-74
2021/03/30 02:49:13;;;;;;;12.55;5.90;;;;;;;12.50;56.66;101630.53;5113158;28;20035;-73
2021/03/30 02:51:40;;;;;;;13.73;5.45;;;;;;;12.41;57.03;101631.81;5114346;28;20028;-73
2021/03/30 02:54:08;;;;;;;12.13;5.68;;;;;;;12.42;57.31;101625.53;5114083;28;20501;-74
2021/03/30 02:56:35;;;;;;;9.95;5.20;;;;;;;12.48;56.95;101627.06;5113877;28;20038;-73
2021/03/30 02:59:02;;;;;;;13.07;6.22;;;;;;;12.31;57.03;101593.06;5114115;28;20028;-71
2021/03/30 03:01:27;;;;;;;10.70;5.50;;;;;;;12.44;57.04;101618.28;5095437;28;20046;-72
2021/03/30 03:03:53;;;;;;;10.32;5.45;;;;;;;12.09;57.34;101562.91;5112720;28;20377;-70
2021/03/30 03:06:20;;;;;;;12.65;5.78;;;;;;;12.41;57.19;101615.78;5112305;28;20023;-74
2021/03/30 03:08:47;;;;;;;13.25;5.53;;;;;;;12.36;57.54;101616.94;5113897;28;20064;-72
2021/03/30 03:11:15;;;;;;;11.55;5.38;;;;;;;12.46;57.26;101623.59;5112569;28;20143;-71
2021/03/30 03:13:43;;;;;;;13.45;5.57;;;;;;;12.51;56.96;101613.53;5113619;28;20031;-71
2021/03/30 03:16:10;;;;;;;11.07;5.60;;;;;;;12.51;57.37;101611.72;5113618;28;20035;-71
2021/03/30 03:18:38;;;;;;;12.30;6.60;;;;;;;12.09;57.52;101554.88;5113076;28;20051;-71
2021/03/30 03:21:04;;;;;;;13.25;6.13;;;;;;;12.36;57.50;101612.47;5113629;28;20047;-72
2021/03/30 03:23:30;;;;;;;12.23;6.22;;;;;;;12.31;58.05;101603.75;5095233;28;20561;-72
2021/03/30 03:25:56;;;;;;;13.48;6.28;;;;;;;12.13;58.56;101578.72;5113476;28;20069;-72
2021/03/30 03:28:22;;;;;;;14.07;6.53;;;;;;;12.26;58.56;101613.81;5113373;28;20067;-73
2021/03/30 03:30:48;;;;;;;11.70;6.65;;;;;;;12.26;58.72;101600.44;5112259;28;20052;-73
2021/03/30 03:33:15;;;;;;;13.90;6.97;;;;;;;12.19;58.76;101602.53;5112165;28;20386;-72
2021/03/30 03:35:41;;;;;;;16.08;7.35;;;;;;;12.18;58.75;101599.91;5113442;28;20084;-70
2021/03/30 03:38:07;;;;;;;16.00;7.03;;;;;;;12.06;59.22;101592.44;5113256;28;20035;-74
2021/03/30 03:40:33;;;;;;;12.63;7.35;;;;;;;12.11;58.83;101596.66;5113291;28;20027;-76
2021/03/30 03:43:00;;;;;;;15.48;7.30;;;;;;;11.81;58.54;101537.41;5111986;28;20410;-76
2021/03/30 03:45:25;;;;;;;14.88;7.28;;;;;;;12.21;58.12;101602.44;5112953;28;20104;-76
2021/03/30 03:47:51;;;;;;;15.15;7.20;;;;;;;12.19;58.10;101602.53;5113378;28;20028;-76
2021/03/30 03:50:17;;;;;;;11.23;6.80;;;;;;;11.89;58.73;101575.34;5111982;28;20115;-79
2021/03/30 03:52:50;;;;;;;12.98;6.80;;;;;;;11.92;59.10;101612.66;5112001;28;20161;-75
2021/03/30 03:55:16;;;;;;;13.45;6.90;;;;;;;11.86;59.38;101607.56;5113229;28;20032;-76
2021/03/30 03:57:45;;;;;;;12.40;7.03;;;;;;;11.87;59.23;101609.31;5095015;28;20035;-76
2021/03/30 04:00:11;;;;;;;13.38;7.00;;;;;;;11.77;59.41;101583.88;5113374;28;20039;-77
2021/03/30 04:02:57;;;;;;;16.25;7.57;;;;;;;11.70;59.95;101587.75;5112987;28;20039;-76
2021/03/30 04:05:33;;;;;;;11.50;6.50;;;;;;;11.94;59.19;101609.91;5113090;28;20435;-75
2021/03/30 04:08:04;;;;;;;11.85;6.32;;;;;;;11.68;59.19;101554.91;5113054;28;20110;-73
2021/03/30 04:10:32;;;;;;;13.75;6.75;;;;;;;11.87;59.38;101609.31;5112693;28;20031;-74
2021/03/30 04:13:00;;;;;;;12.68;6.55;;;;;;;11.84;58.99;101588.03;5111730;28;20106;-74
2021/03/30 04:15:25;;;;;;;14.95;6.78;;;;;;;11.83;59.22;101577.41;5112744;28;20131;-74
2021/03/30 04:17:52;;;;;;;10.98;6.20;;;;;;;11.85;59.33;101603.16;5111759;28;20464;-74
2021/03/30 04:20:19;;;;;;;13.85;6.88;;;;;;;11.68;59.86;101590.50;5111414;28;20131;-74
2021/03/30 04:22:55;;;;;;;13.90;7.30;;;;;;;11.89;59.22;101604.78;5113301;28;20036;-74
2021/03/30 04:25:20;;;;;;;12.45;6.95;;;;;;;11.91;59.23;101616.25;5111665;28;20531;-76
2021/03/30 04:27:46;;;;;;;12.38;6.25;;;;;;;11.81;59.88;101598.00;5112087;28;20039;-74
2021/03/30 04:30:12;;;;;;;12.98;7.28;;;;;;;11.81;60.24;101603.38;5111989;28;20032;-72
2021/03/30 04:32:38;;;;;;;16.48;6.85;;;;;;;11.61;60.41;101574.81;5112617;28;20514;-71
2021/03/30 04:35:04;;;;;;;13.18;7.22;;;;;;;11.82;60.18;101605.09;5111381;28;20131;-71
2021/03/30 04:37:30;;;;;;;10.27;6.30;;;;;;;11.72;60.56;101583.22;5112679;28;20063;-73
2021/03/30 04:39:55;;;;;;;13.55;6.60;;;;;;;11.75;60.56;101578.59;5112871;28;20063;-74
2021/03/30 04:42:21;;;;;;;11.60;6.60;;;;;;;11.90;60.26;101594.94;5112392;28;20032;-72
2021/03/30 04:44:46;;;;;;;13.50;7.00;;;;;;;12.01;59.67;101614.03;5094286;28;20586;-72
2021/03/30 04:47:12;;;;;;;16.45;6.80;;;;;;;12.04;59.39;101617.44;5111472;28;20047;-72
2021/03/30 04:49:37;;;;;;;9.75;6.40;;;;;;;12.09;59.70;101616.38;5112243;28;20126;-72
2021/03/30 04:52:04;;;;;;;12.15;6.22;;;;;;;11.85;59.45;101568.38;5111656;28;20028;-71
2021/03/30 04:54:29;;;;;;;13.50;6.22;;;;;;;12.09;59.22;101609.22;5115975;28;20043;-72
2021/03/30 04:56:55;;;;;;;12.20;5.90;;;;;;;12.21;58.99;101619.38;5115143;28;20035;-70
2021/03/30 04:59:21;;;;;;;10.43;5.80;;;;;;;12.08;58.98;101588.78;5116409;28;20109;-71
2021/03/30 05:01:47;;;;;;;11.65;5.93;;;;;;;12.29;58.56;101624.38;5115037;28;20054;-74
2021/03/30 05:04:13;;;;;;;21.17;7.13;;;;;;;12.41;58.58;101626.47;5097973;28;20466;-72
2021/03/30 05:06:38;;;;;;;14.00;6.70;;;;;;;12.52;58.03;101610.78;5116261;28;20032;-74
2021/03/30 05:09:04;;;;;;;14.10;6.70;;;;;;;12.23;57.92;101579.16;5116350;28;20032;-73
2021/03/30 05:11:30;;;;;;;20.35;7.50;;;;;;;12.58;57.35;101617.69;5114437;28;20123;-71
2021/03/30 05:13:55;;;;;;;17.10;7.05;;;;;;;12.43;57.65;101581.78;5116164;28;20093;-73
2021/03/30 05:16:21;;;;;;;15.68;6.90;;;;;;;12.68;58.21;101635.03;5114889;28;20058;-72
2021/03/30 05:18:47;;;;;;;16.48;7.03;;;;;;;12.55;58.73;101637.44;5114301;28;20056;-72
2021/03/30 05:21:13;;;;;;;15.88;7.03;;;;;;;12.58;59.12;101639.09;5114575;28;20067;-72
2021/03/30 05:23:39;;;;;;;13.65;7.07;;;;;;;12.36;58.82;101609.78;5114545;28;20094;-73
2021/03/30 05:26:05;;;;;;;14.68;7.45;;;;;;;12.53;59.13;101639.28;5114816;28;20043;-71
2021/03/30 05:28:30;;;;;;;10.63;6.70;;;;;;;12.55;58.38;101608.00;5115484;28;20031;-74
2021/03/30 05:30:56;;;;;;;12.50;6.72;;;;;;;12.64;58.14;101624.53;5115765;28;20386;-74
2021/03/30 05:33:21;;;;;;;11.70;5.80;;;;;;;12.72;57.77;101638.44;5115469;28;20031;-76
2021/03/30 05:35:47;;;;;;;16.27;6.65;;;;;;;12.70;57.53;101621.56;5114219;28;20046;-76
2021/03/30 05:38:13;;;;;;;17.75;6.85;;;;;;;12.81;57.26;101614.75;5116048;28;20374;-76
2021/03/30 05:40:39;;;;;;;15.55;7.38;;;;;;;12.78;58.00;101630.13;5097187;28;20028;-75
2021/03/30 05:43:05;;;;;;;16.17;6.82;;;;;;;12.85;57.75;101626.22;5097031;28;20401;-76
2021/03/30 05:45:31;;;;;;;15.00;6.60;;;;;;;13.07;57.06;101626.91;5115295;28;20044;-75
2021/03/30 05:47:57;;;;;;;13.15;5.57;;;;;;;12.87;57.71;101629.69;5114222;28;20050;-76
2021/03/30 05:50:27;;;;;;;12.27;5.70;;;;;;;12.82;57.67;101623.66;5115453;28;20053;-73
2021/03/30 05:53:14;;;;;;;9.52;5.25;;;;;;;12.94;57.45;101633.81;5115133;28;20527;-74
2021/03/30 05:55:40;;;;;;;12.45;5.70;;;;;;;12.76;57.18;101581.13;5114197;28;20047;-73
2021/03/30 05:58:07;;;;;;;15.18;5.90;;;;;;;13.05;57.64;101625.25;5115121;28;20041;-74
2021/03/30 06:00:37;;;;;;;11.95;5.45;;;;;;;13.05;57.18;101641.31;5099140;28;20045;-74
2021/03/30 06:03:10;;;;;;;11.00;5.32;;;;;;;13.15;57.25;101645.28;5112027;28;20020;-73
2021/03/30 06:05:37;;;;;;;15.10;6.03;;;;;;;12.93;57.70;101617.78;5114232;28;20039;-72
2021/03/30 06:08:05;;;;;;;11.30;5.70;;;;;;;12.97;58.03;101619.41;5093793;28;20032;-74
2021/03/30 06:10:32;;;;;;;13.80;5.68;;;;;;;13.01;58.38;101619.16;5114595;28;20047;-74
2021/03/30 06:12:59;;;;;;;9.82;5.32;;;;;;;13.09;57.89;101638.41;5114246;28;20228;-73
2021/03/30 06:15:28;;;;;;;13.73;5.55;;;;;;;13.12;58.27;101632.91;5096064;28;20036;-73
2021/03/30 06:17:55;;;;;;;10.43;5.40;;;;;;;12.97;57.47;101612.22;5113862;28;20060;-75
2021/03/30 06:20:30;;;;;;;11.02;4.68;;;;;;;13.13;56.85;101634.66;5114583;28;20043;-76
2021/03/30 06:22:59;;;;;;;12.13;4.93;;;;;;;13.15;57.18;101639.94;5114026;28;20502;-75
2021/03/30 06:25:45;;;;;;;11.10;5.00;;;;;;;13.18;56.80;101643.31;5114255;28;20027;-71
2021/03/30 06:28:21;;;;;;;10.88;5.18;;;;;;;13.14;56.69;101654.28;5114329;28;20098;-75
2021/03/30 06:31:13;;;;;;;10.68;5.30;;;;;;;13.19;56.98;101646.91;5112342;28;20035;-71
2021/03/30 06:33:52;;;;;;;10.75;5.50;;;;;;;13.25;55.84;101651.09;5109392;28;20051;-74
2021/03/30 06:36:24;;;;;;;10.00;5.63;;;;;;;13.13;55.63;101621.25;5114120;28;20034;-74
2021/03/30 06:39:03;;;;;;;12.90;5.82;;;;;;;13.28;55.44;101648.25;5115414;28;20066;-74
2021/03/30 06:41:51;;;;;;;12.80;6.05;;;;;;;13.30;56.05;101647.22;5127234;28;20028;-74
2021/03/30 06:44:26;;;;;;;13.88;5.80;;;;;;;13.21;55.45;101620.03;5116115;28;20114;-73
2021/03/30 06:47:13;;;;;;;13.35;6.53;;;;;;;13.41;56.05;101658.31;5097407;28;20050;-72
2021/03/30 06:49:57;;;;;;;19.77;5.93;;;;;;;13.54;55.40;101663.91;5114564;28;20036;-76
2021/03/30 06:52:30;;;;;;;11.43;5.78;;;;;;;13.57;55.94;101662.88;5114246;28;20035;-74
2021/03/30 06:54:57;;;;;;;12.87;6.47;;;;;;;13.60;55.63;101658.22;5112753;28;20177;-71
2021/03/30 06:57:35;;;;;;;13.98;6.93;;;;;;;13.66;55.79;101667.78;5112795;28;20019;-76
2021/03/30 07:00:20;;;;;;;15.40;6.38;;;;;;;13.76;54.98;101674.41;5112652;28;20031;-76
2021/03/30 07:02:47;;;;;;;15.25;7.63;;;;;;;13.69;54.57;101668.50;5094909;28;20023;-77
2021/03/30 07:05:43;;;;;;;16.42;7.22;;;;;;;13.77;54.71;101670.78;5113442;28;20035;-76
2021/03/30 07:08:10;;;;;;;15.00;7.00;;;;;;;13.83;54.96;101669.63;5092037;28;20394;-78
2021/03/30 07:10:38;;;;;;;14.63;6.93;;;;;;;13.90;54.56;101654.97;5113495;28;20023;-76
2021/03/30 07:13:05;;;;;;;13.80;7.00;;;;;;;14.05;54.55;101667.56;5112482;28;20137;-75
2021/03/30 07:15:32;;;;;;;19.98;8.35;;;;;;;14.07;54.08;101664.78;5113127;28;20047;-75
2021/03/30 07:18:35;;;;;;;12.45;7.35;;;;;;;14.17;53.56;101674.94;5112791;28;20387;-75
2021/03/30 07:21:05;;;;;;;14.80;7.43;;;;;;;14.32;53.26;101671.47;5075493;28;20105;-73
2021/03/30 07:23:33;;;;;;;13.88;7.68;;;;;;;14.27;53.40;101669.97;5094549;28;20100;-71
2021/03/30 07:26:05;;;;;;;15.13;8.00;;;;;;;14.46;53.02;101677.94;5112253;28;20031;-79
2021/03/30 07:28:40;;;;;;;16.20;7.30;;;;;;;14.44;52.72;101667.25;5112927;28;20067;-75
2021/03/30 07:31:09;;;;;;;15.80;7.68;;;;;;;14.64;52.36;101678.75;5112965;28;20027;-75
2021/03/30 07:33:49;;;;;;;19.88;7.40;;;;;;;14.81;52.19;101676.88;5112828;28;20035;-73
2021/03/30 07:36:17;;;;;;;15.57;7.55;;;;;;;14.81;51.97;101676.88;5113027;28;20027;-74
2021/03/30 07:38:52;;;;;;;19.65;7.65;;;;;;;15.09;51.41;101672.66;5112392;28;20446;-77
2021/03/30 07:41:19;;;;;;;17.40;7.68;;;;;;;15.32;51.09;101680.28;5094610;28;20073;-73
2021/03/30 07:43:47;;;;;;;15.27;7.20;;;;;;;15.47;49.46;101681.22;5112306;28;20041;-73
2021/03/30 07:46:14;;;;;;;16.00;7.38;;;;;;;15.46;49.40;101653.47;5112865;28;20019;-78
2021/03/30 07:48:40;;;;;;;14.52;7.40;;;;;;;15.66;49.77;101676.53;5112789;28;20126;-79
2021/03/30 07:51:09;;;;;;;12.25;7.00;;;;;;;15.35;49.77;101655.91;5094564;28;20040;-84
2021/03/30 07:53:54;;;;;;;14.15;6.75;;;;;;;15.71;49.13;101678.94;5094856;28;20081;-84
2021/03/30 07:56:28;;;;;;;13.52;7.15;;;;;;;15.78;49.12;101679.44;5113429;28;20028;-75
2021/03/30 07:58:56;;;;;;;10.88;6.13;;;;;;;15.45;49.23;101651.75;5112154;28;20028;-77
2021/03/30 08:01:26;;;;;;;14.05;6.53;;;;;;;15.49;49.61;101662.31;5112063;28;20525;-82
2021/03/30 08:03:55;;;;;;;21.80;10.85;;;;;;;15.70;49.21;101682.59;5111224;28;20036;-78
2021/03/30 08:06:32;;;;;;;15.70;7.10;;;;;;;15.54;49.42;101654.81;5094304;28;20036;-79
2021/03/30 08:09:01;;;;;;;12.93;7.35;;;;;;;15.80;49.56;101677.53;5112671;28;20027;-80
2021/03/30 08:11:43;;;;;;;11.75;6.60;;;;;;;16.06;48.82;101682.22;5112475;28;20114;-72
2021/03/30 08:14:26;;;;;;;14.35;7.28;;;;;;;16.22;48.21;101680.34;5111921;28;20113;-78
2021/03/30 08:16:53;;;;;;;13.67;7.10;;;;;;;16.28;47.93;101677.25;5112303;28;20039;-72
2021/03/30 08:19:20;;;;;;;15.32;7.38;;;;;;;16.49;47.89;101683.13;5111881;28;20413;-73
2021/03/30 08:22:06;;;;;;;13.98;6.57;;;;;;;16.32;47.90;101664.50;5111628;28;20412;-78
2021/03/30 08:24:46;;;;;;;14.07;7.03;;;;;;;16.21;48.73;101685.78;5112524;28;20032;-77
2021/03/30 08:27:30;;;;;;;14.82;6.18;;;;;;;15.97;49.13;101685.47;5094700;28;20036;-75
2021/03/30 08:29:57;;;;;;;10.40;5.65;;;;;;;16.17;48.95;101682.44;5116059;28;20027;-74
2021/03/30 08:32:22;;;;;;;10.80;4.88;;;;;;;16.17;48.86;101676.19;5101899;28;20044;-76
2021/03/30 08:34:48;;;;;;;10.63;5.53;;;;;;;16.30;48.84;101690.63;5115547;28;20081;-74
2021/03/30 08:37:15;;;;;;;9.93;5.28;;;;;;;16.06;49.61;101662.53;5097996;28;20031;-77
2021/03/30 08:39:42;;;;;;;11.13;5.53;;;;;;;15.96;49.98;101638.00;5098152;28;20038;-74
2021/03/30 08:42:12;;;;;;;11.18;5.97;;;;;;;16.37;52.39;101691.97;5115616;28;20405;-78
2021/03/30 08:44:48;;;;;;;11.65;5.72;;;;;;;16.68;49.80;101690.06;5116292;28;20427;-74
2021/03/30 08:47:42;;;;;;;10.93;6.05;;;;;;;16.38;49.63;101693.72;5097950;28;20119;-74
2021/03/30 08:50:10;;;;;;;9.90;5.78;;;;;;;16.54;49.00;101690.94;5115801;28;20039;-76
2021/03/30 08:52:36;;;;;;;12.82;6.30;;;;;;;16.29;50.38;101665.53;5116248;28;20110;-77
2021/03/30 08:55:02;;;;;;;14.52;6.47;;;;;;;16.38;48.64;101691.00;5096979;28;20026;-76
2021/03/30 08:57:36;;;;;;;13.93;6.85;;;;;;;16.29;48.42;101675.44;5115987;28;20028;-72
2021/03/30 09:00:13;;;;;;;10.90;6.07;;;;;;;16.05;48.56;101621.28;5098168;28;20032;-76
2021/03/30 09:02:38;;;;;;;11.07;6.00;;;;;;;16.40;48.15;101670.25;5115857;28;20057;-75
2021/03/30 09:05:18;;;;;;;11.07;6.32;;;;;;;16.46;47.95;101691.41;5096983;28;20052;-76
2021/03/30 09:07:45;;;;;;;11.10;5.20;;;;;;;16.46;47.03;101682.47;5115656;28;20116;-75
2021/03/30 09:10:11;;;;;;;13.75;5.65;;;;;;;16.37;47.39;101683.03;5115314;28;20055;-78
2021/03/30 09:12:37;;;;;;;13.32;5.70;;;;;;;16.13;48.51;101655.81;5097683;28;20043;-77
2021/03/30 09:15:12;;;;;;;14.13;6.60;;;;;;;16.16;48.04;101680.72;5115415;28;20486;-79
2021/03/30 09:18:00;;;;;;;16.85;5.93;;;;;;;16.00;48.27;101648.47;5111033;28;20389;-79
2021/03/30 09:20:33;;;;;;;11.77;5.78;;;;;;;16.13;48.31;101655.81;5115250;28;20024;-78
2021/03/30 09:23:03;;;;;;;10.18;5.57;;;;;;;16.08;48.91;101672.22;5096925;28;20020;-77
2021/03/30 09:25:39;;;;;;;15.23;5.90;;;;;;;15.83;49.17;101618.19;5115476;28;20118;-77
2021/03/30 09:28:05;;;;;;;11.57;5.90;;;;;;;16.28;49.14;101679.09;5115478;28;20108;-77
2021/03/30 09:30:31;;;;;;;10.50;5.82;;;;;;;16.13;49.29;101653.97;5114939;28;20051;-75
2021/03/30 09:32:57;;;;;;;14.75;5.60;;;;;;;15.77;50.56;101600.56;5096705;28;20382;-73
2021/03/30 09:35:26;;;;;;;12.18;5.75;;;;;;;16.47;49.46;101682.38;5114757;28;20043;-74
2021/03/30 09:37:53;;;;;;;13.93;6.15;;;;;;;16.55;49.07;101660.34;5096331;28;20122;-77
2021/03/30 09:40:23;;;;;;;10.65;5.80;;;;;;;16.35;48.78;101658.91;5114733;28;20050;-73
2021/03/30 09:42:49;;;;;;;13.50;6.03;;;;;;;16.28;49.50;101685.34;5096776;28;20031;-73
2021/03/30 09:45:24;;;;;;;10.75;5.68;;;;;;;16.41;48.98;101689.97;5114349;28;20081;-73
2021/03/30 09:47:50;;;;;;;11.30;5.78;;;;;;;16.44;49.01;101695.16;5097216;28;20039;-73
2021/03/30 09:50:20;;;;;;;13.93;5.57;;;;;;;16.49;49.00;101688.53;5114592;28;20035;-78
2021/03/30 09:52:45;;;;;;;13.52;5.30;;;;;;;16.54;48.27;101691.81;5119111;28;20036;-74
2021/03/30 09:55:11;;;;;;;10.73;5.20;;;;;;;16.46;49.29;101693.25;5114069;28;20028;-73
2021/03/30 09:57:37;;;;;;;11.70;5.47;;;;;;;16.68;48.76;101693.66;5114883;28;20031;-76
2021/03/30 10:00:04;;;;;;;16.00;6.38;;;;;;;16.76;49.17;101694.03;5113916;28;20031;-78
2021/03/30 10:02:32;;;;;;;14.05;6.18;;;;;;;16.68;49.03;101681.97;5096499;28;20491;-82
2021/03/30 10:05:00;;;;;;;12.13;5.65;;;;;;;16.06;49.30;101622.16;5114012;28;20023;-79
2021/03/30 10:07:37;;;;;;;15.68;6.40;;;;;;;16.41;49.07;101685.47;5114517;28;20027;-81
2021/03/30 10:10:07;;;;;;;12.02;5.90;;;;;;;16.75;49.23;101680.69;5113803;28;20028;-77
2021/03/30 10:12:43;;;;;;;8.75;5.50;;;;;;;17.02;48.59;101684.31;5114719;28;20035;-78
2021/03/30 10:15:09;;;;;;;16.52;6.30;;;;;;;16.73;49.98;101688.84;5114497;28;20118;-76
2021/03/30 10:17:35;;;;;;;8.73;5.57;;;;;;;16.63;50.16;101676.91;5114396;28;20521;-75
2021/03/30 10:20:01;;;;;;;16.95;6.45;;;;;;;16.80;49.22;101675.88;5094855;28;20531;-73
2021/03/30 10:22:32;;;;;;;13.27;6.80;;;;;;;16.90;49.35;101649.19;5121324;28;20024;-73
2021/03/30 10:25:18;;;;;;;11.10;6.03;;;;;;;17.20;48.38;101667.91;5120622;28;20027;-78
2021/03/30 10:27:53;;;;;;;13.25;6.18;;;;;;;17.16;48.96;101665.38;5114567;28;20024;-78
2021/03/30 10:30:29;;;;;;;11.32;5.75;;;;;;;17.34;48.30;101660.63;5114215;28;20035;-77
2021/03/30 10:32:58;;;;;;;10.82;5.63;;;;;;;17.18;48.51;101665.31;5112807;28;20389;-80
2021/03/30 10:35:24;;;;;;;14.98;6.00;;;;;;;17.37;48.19;101655.03;5113672;28;20115;-71
2021/03/30 10:37:51;;;;;;;13.90;5.68;;;;;;;17.32;48.37;101659.00;5116647;28;20055;-75
2021/03/30 10:40:17;;;;;;;11.68;5.32;;;;;;;17.25;48.03;101646.88;5113679;28;20023;-78
2021/03/30 10:42:42;;;;;;;11.07;5.18;;;;;;;17.17;48.13;101633.91;5112844;28;20032;-80
2021/03/30 10:45:12;;;;;;;10.85;5.22;;;;;;;16.73;48.33;101588.31;5113016;27;20486;-78
2021/03/30 10:47:44;;;;;;;9.15;4.72;;;;;;;16.93;48.69;101659.78;5114098;28;20031;-78
2021/03/30 10:50:15;;;;;;;9.75;4.70;;;;;;;16.92;48.81;101648.13;5112932;28;20043;-78
2021/03/30 10:52:43;;;;;;;10.77;5.07;;;;;;;16.40;49.51;101618.22;5113538;28;20371;-78
2021/03/30 10:55:12;;;;;;;9.70;4.60;;;;;;;16.57;49.56;101631.47;5113284;28;20039;-75
2021/03/30 10:57:40;;;;;;;11.73;4.93;;;;;;;16.88;49.62;101642.06;5113850;28;20032;-77
2021/03/30 11:00:08;;;;;;;10.75;4.88;;;;;;;17.36;48.52;101652.41;5102036;28;20024;-75
2021/03/30 11:02:34;;;;;;;11.05;5.18;;;;;;;17.16;48.41;101634.88;5113808;28;20363;-78
2021/03/30 11:05:00;;;;;;;9.32;4.97;;;;;;;17.29;48.40;101651.13;5112657;28;20118;-76
2021/03/30 11:07:25;;;;;;;11.52;4.80;;;;;;;17.42;48.11;101635.84;5113430;28;20066;-79
2021/03/30 11:09:51;;;;;;;8.55;5.22;;;;;;;17.31;47.80;101622.22;5113483;28;20378;-79
2021/03/30 11:12:17;;;;;;;9.02;4.75;;;;;;;17.28;48.24;101635.91;5094711;28;20038;-76
2021/03/30 11:14:43;;;;;;;11.20;5.07;;;;;;;17.38;47.99;101632.50;5095195;28;20485;-77
2021/03/30 11:17:09;;;;;;;9.25;4.70;;;;;;;17.61;47.48;101632.78;5112987;28;20035;-73
2021/03/30 11:19:35;;;;;;;9.07;4.80;;;;;;;17.48;48.24;101635.44;5094910;28;20063;-76
2021/03/30 11:22:01;;;;;;;10.05;5.68;;;;;;;17.55;48.04;101631.34;5094933;28;20046;-76
2021/03/30 11:24:30;;;;;;;12.70;5.93;;;;;;;17.58;47.59;101612.28;5113013;28;20033;-75
2021/03/30 11:26:57;;;;;;;9.55;5.40;;;;;;;17.59;47.31;101592.41;5095619;28;20359;-78
2021/03/30 11:36:53;;;;;;;9.07;5.30;;;;;;;17.43;49.20;101616.00;5095949;28;20060;-78